sensor_id;sensor_type;location;lat;lon;timestamp;P1;P2;P0
73973;PMS5003;62336;-26.094;27.994;2022-07-23T00:01:10;33;31;
73973;PMS5003;62336;-26.094;27.994;2022-07-23T00:03:36;33;33;
73973;PMS5003;62336;-26.094;27.994;2022-07-23T00:06:01;38;36;
73973;PMS5003;62336;-26.094;27.994;2022-07-23T00:08:26;38;35;
73973;PMS5003;62336;-26.094;27.994;2022-07-23T00:10:52;38;37;
73973;PMS5003;62336;-26.094;27.994;2022-07-23T00:13:17;39;35;
73973;PMS5003;62336;-26.094;27.994;2022-07-23T00:15:42;39;36;
73973;PMS5003;62336;-26.094;27.994;2022-07-23T00:18:08;40;37;
73973;PMS5003;62336;-26.094;27.994;2022-07-23T00:20:33;41;39;
73973;PMS5003;62336;-26.094;27.994;2022-07-23T00:22:59;44;40;
73973;PMS5003;62336;-26.094;27.994;2022-07-23T00:25:26;41;38;
73973;PMS5003;62336;-26.094;27.994;2022-07-23T00:27:50;42;38;
73973;PMS5003;62336;-26.094;27.994;2022-07-23T00:30:15;44;40;
73973;PMS5003;62336;-26.094;27.994;2022-07-23T00:32:46;42;40;
73973;PMS5003;62336;-26.094;27.994;2022-07-23T00:35:06;38;36;
73973;PMS5003;62336;-26.094;27.994;2022-07-23T00:37:31;39;38;
73973;PMS5003;62336;-26.094;27.994;2022-07-23T00:39:57;40;36;
73973;PMS5003;62336;-26.094;27.994;2022-07-23T00:42:23;40;36;
73973;PMS5003;62336;-26.094;27.994;2022-07-23T00:44:48;41;38;
73973;PMS5003;62336;-26.094;27.994;2022-07-23T00:47:14;39;37;
73973;PMS5003;62336;-26.094;27.994;2022-07-23T00:49:39;41;39;
73973;PMS5003;62336;-26.094;27.994;2022-07-23T00:52:04;39;36;
73973;PMS5003;62336;-26.094;27.994;2022-07-23T00:54:30;44;42;
73973;PMS5003;62336;-26.094;27.994;2022-07-23T00:56:55;40;39;
73973;PMS5003;62336;-26.094;27.994;2022-07-23T00:59:20;43;40;
73973;PMS5003;62336;-26.094;27.994;2022-07-23T01:01:46;40;39;
73973;PMS5003;62336;-26.094;27.994;2022-07-23T01:04:11;40;39;
73973;PMS5003;62336;-26.094;27.994;2022-07-23T01:06:37;40;38;
73973;PMS5003;62336;-26.094;27.994;2022-07-23T01:09:03;39;38;
73973;PMS5003;62336;-26.094;27.994;2022-07-23T01:11:28;40;38;
73973;PMS5003;62336;-26.094;27.994;2022-07-23T01:13:53;41;40;
73973;PMS5003;62336;-26.094;27.994;2022-07-23T01:16:18;37;35;
73973;PMS5003;62336;-26.094;27.994;2022-07-23T01:18:43;41;36;
73973;PMS5003;62336;-26.094;27.994;2022-07-23T01:21:09;37;34;
73973;PMS5003;62336;-26.094;27.994;2022-07-23T01:23:34;43;42;
73973;PMS5003;62336;-26.094;27.994;2022-07-23T01:26:00;41;40;
73973;PMS5003;62336;-26.094;27.994;2022-07-23T01:28:25;40;37;
73973;PMS5003;62336;-26.094;27.994;2022-07-23T01:30:50;43;40;
73973;PMS5003;62336;-26.094;27.994;2022-07-23T01:33:15;38;35;
73973;PMS5003;62336;-26.094;27.994;2022-07-23T01:35:41;40;38;
73973;PMS5003;62336;-26.094;27.994;2022-07-23T01:38:06;38;36;
73973;PMS5003;62336;-26.094;27.994;2022-07-23T01:40:32;41;38;
73973;PMS5003;62336;-26.094;27.994;2022-07-23T01:42:57;38;33;
73973;PMS5003;62336;-26.094;27.994;2022-07-23T01:45:23;37;33;
73973;PMS5003;62336;-26.094;27.994;2022-07-23T01:47:48;32;32;
73973;PMS5003;62336;-26.094;27.994;2022-07-23T01:50:13;45;43;
73973;PMS5003;62336;-26.094;27.994;2022-07-23T01:52:39;38;35;
73973;PMS5003;62336;-26.094;27.994;2022-07-23T01:55:05;45;41;
73973;PMS5003;62336;-26.094;27.994;2022-07-23T01:57:30;38;36;
73973;PMS5003;62336;-26.094;27.994;2022-07-23T01:59:56;47;44;
73973;PMS5003;62336;-26.094;27.994;2022-07-23T02:02:20;41;38;
73973;PMS5003;62336;-26.094;27.994;2022-07-23T02:04:46;40;37;
73973;PMS5003;62336;-26.094;27.994;2022-07-23T02:07:11;41;37;
73973;PMS5003;62336;-26.094;27.994;2022-07-23T02:09:37;48;39;
73973;PMS5003;62336;-26.094;27.994;2022-07-23T02:12:02;40;39;
73973;PMS5003;62336;-26.094;27.994;2022-07-23T02:14:28;36;34;
73973;PMS5003;62336;-26.094;27.994;2022-07-23T02:16:53;38;36;
73973;PMS5003;62336;-26.094;27.994;2022-07-23T02:19:19;39;37;
73973;PMS5003;62336;-26.094;27.994;2022-07-23T02:21:44;39;38;
73973;PMS5003;62336;-26.094;27.994;2022-07-23T02:24:09;38;36;
73973;PMS5003;62336;-26.094;27.994;2022-07-23T02:26:35;32;31;
73973;PMS5003;62336;-26.094;27.994;2022-07-23T02:29:00;31;29;
73973;PMS5003;62336;-26.094;27.994;2022-07-23T02:31:26;35;32;
73973;PMS5003;62336;-26.094;27.994;2022-07-23T02:33:51;34;30;
73973;PMS5003;62336;-26.094;27.994;2022-07-23T02:36:16;30;30;
73973;PMS5003;62336;-26.094;27.994;2022-07-23T02:38:41;37;34;
73973;PMS5003;62336;-26.094;27.994;2022-07-23T02:41:06;30;29;
73973;PMS5003;62336;-26.094;27.994;2022-07-23T02:43:32;29;29;
73973;PMS5003;62336;-26.094;27.994;2022-07-23T02:45:57;31;29;
73973;PMS5003;62336;-26.094;27.994;2022-07-23T02:48:22;27;27;
73973;PMS5003;62336;-26.094;27.994;2022-07-23T02:50:47;27;26;
73973;PMS5003;62336;-26.094;27.994;2022-07-23T02:53:13;28;26;
73973;PMS5003;62336;-26.094;27.994;2022-07-23T02:55:38;30;29;
73973;PMS5003;62336;-26.094;27.994;2022-07-23T02:58:03;25;25;
73973;PMS5003;62336;-26.094;27.994;2022-07-23T03:00:28;29;29;
73973;PMS5003;62336;-26.094;27.994;2022-07-23T03:02:54;36;29;
73973;PMS5003;62336;-26.094;27.994;2022-07-23T03:05:19;26;26;
73973;PMS5003;62336;-26.094;27.994;2022-07-23T03:07:44;33;30;
73973;PMS5003;62336;-26.094;27.994;2022-07-23T03:10:10;38;33;
73973;PMS5003;62336;-26.094;27.994;2022-07-23T03:12:36;28;27;
73973;PMS5003;62336;-26.094;27.994;2022-07-23T03:15:00;29;27;
73973;PMS5003;62336;-26.094;27.994;2022-07-23T03:17:26;29;28;
73973;PMS5003;62336;-26.094;27.994;2022-07-23T03:19:51;28;27;
73973;PMS5003;62336;-26.094;27.994;2022-07-23T03:22:16;26;24;
73973;PMS5003;62336;-26.094;27.994;2022-07-23T03:24:41;25;24;
73973;PMS5003;62336;-26.094;27.994;2022-07-23T03:27:06;25;24;
73973;PMS5003;62336;-26.094;27.994;2022-07-23T03:29:31;26;26;
73973;PMS5003;62336;-26.094;27.994;2022-07-23T03:31:57;23;23;
73973;PMS5003;62336;-26.094;27.994;2022-07-23T03:34:23;23;20;
73973;PMS5003;62336;-26.094;27.994;2022-07-23T03:36:48;19;19;
73973;PMS5003;62336;-26.094;27.994;2022-07-23T03:39:14;20;19;
73973;PMS5003;62336;-26.094;27.994;2022-07-23T03:41:39;22;22;
73973;PMS5003;62336;-26.094;27.994;2022-07-23T03:44:04;19;18;
73973;PMS5003;62336;-26.094;27.994;2022-07-23T03:46:30;23;21;
73973;PMS5003;62336;-26.094;27.994;2022-07-23T03:48:55;19;19;
73973;PMS5003;62336;-26.094;27.994;2022-07-23T03:51:21;22;21;
73973;PMS5003;62336;-26.094;27.994;2022-07-23T03:53:46;19;19;
73973;PMS5003;62336;-26.094;27.994;2022-07-23T03:56:12;26;26;
73973;PMS5003;62336;-26.094;27.994;2022-07-23T03:58:37;19;18;
73973;PMS5003;62336;-26.094;27.994;2022-07-23T04:01:03;17;17;
73973;PMS5003;62336;-26.094;27.994;2022-07-23T04:03:29;20;19;
73973;PMS5003;62336;-26.094;27.994;2022-07-23T04:05:55;19;17;
73973;PMS5003;62336;-26.094;27.994;2022-07-23T04:08:20;20;20;
73973;PMS5003;62336;-26.094;27.994;2022-07-23T04:10:46;19;18;
73973;PMS5003;62336;-26.094;27.994;2022-07-23T04:13:11;23;21;
73973;PMS5003;62336;-26.094;27.994;2022-07-23T04:15:36;25;20;
73973;PMS5003;62336;-26.094;27.994;2022-07-23T04:18:02;19;18;
73973;PMS5003;62336;-26.094;27.994;2022-07-23T04:20:27;25;20;
73973;PMS5003;62336;-26.094;27.994;2022-07-23T04:22:53;28;23;
73973;PMS5003;62336;-26.094;27.994;2022-07-23T04:25:18;23;21;
73973;PMS5003;62336;-26.094;27.994;2022-07-23T04:27:44;22;20;
73973;PMS5003;62336;-26.094;27.994;2022-07-23T04:30:09;21;20;
73973;PMS5003;62336;-26.094;27.994;2022-07-23T04:32:35;28;23;
73973;PMS5003;62336;-26.094;27.994;2022-07-23T04:35:00;27;26;
73973;PMS5003;62336;-26.094;27.994;2022-07-23T04:37:26;28;27;
73973;PMS5003;62336;-26.094;27.994;2022-07-23T04:39:51;29;26;
73973;PMS5003;62336;-26.094;27.994;2022-07-23T04:42:16;26;26;
73973;PMS5003;62336;-26.094;27.994;2022-07-23T04:44:41;25;22;
73973;PMS5003;62336;-26.094;27.994;2022-07-23T04:47:07;20;19;
73973;PMS5003;62336;-26.094;27.994;2022-07-23T04:49:32;25;22;
73973;PMS5003;62336;-26.094;27.994;2022-07-23T04:51:57;26;25;
73973;PMS5003;62336;-26.094;27.994;2022-07-23T04:54:23;25;22;
73973;PMS5003;62336;-26.094;27.994;2022-07-23T04:56:48;22;20;
73973;PMS5003;62336;-26.094;27.994;2022-07-23T04:59:14;21;20;
73973;PMS5003;62336;-26.094;27.994;2022-07-23T05:01:39;24;24;
73973;PMS5003;62336;-26.094;27.994;2022-07-23T05:04:06;23;22;
73973;PMS5003;62336;-26.094;27.994;2022-07-23T05:06:29;24;23;
73973;PMS5003;62336;-26.094;27.994;2022-07-23T05:08:56;20;19;
73973;PMS5003;62336;-26.094;27.994;2022-07-23T05:11:21;23;21;
73973;PMS5003;62336;-26.094;27.994;2022-07-23T05:13:46;22;21;
73973;PMS5003;62336;-26.094;27.994;2022-07-23T05:16:12;28;26;
73973;PMS5003;62336;-26.094;27.994;2022-07-23T05:18:37;29;29;
73973;PMS5003;62336;-26.094;27.994;2022-07-23T05:21:04;23;23;
73973;PMS5003;62336;-26.094;27.994;2022-07-23T05:23:28;26;23;
73973;PMS5003;62336;-26.094;27.994;2022-07-23T05:25:54;27;24;
73973;PMS5003;62336;-26.094;27.994;2022-07-23T05:28:19;26;24;
73973;PMS5003;62336;-26.094;27.994;2022-07-23T05:30:45;33;30;
73973;PMS5003;62336;-26.094;27.994;2022-07-23T05:33:10;23;23;
73973;PMS5003;62336;-26.094;27.994;2022-07-23T05:35:35;30;27;
73973;PMS5003;62336;-26.094;27.994;2022-07-23T05:38:01;33;30;
73973;PMS5003;62336;-26.094;27.994;2022-07-23T05:40:26;28;26;
73973;PMS5003;62336;-26.094;27.994;2022-07-23T05:42:52;28;27;
73973;PMS5003;62336;-26.094;27.994;2022-07-23T05:45:17;32;30;
73973;PMS5003;62336;-26.094;27.994;2022-07-23T05:47:43;28;27;
73973;PMS5003;62336;-26.094;27.994;2022-07-23T05:50:08;40;36;
73973;PMS5003;62336;-26.094;27.994;2022-07-23T05:52:33;45;41;
73973;PMS5003;62336;-26.094;27.994;2022-07-23T05:55:00;44;41;
73973;PMS5003;62336;-26.094;27.994;2022-07-23T05:57:25;45;42;
73973;PMS5003;62336;-26.094;27.994;2022-07-23T05:59:50;40;37;
73973;PMS5003;62336;-26.094;27.994;2022-07-23T06:02:16;40;39;
73973;PMS5003;62336;-26.094;27.994;2022-07-23T06:04:42;40;39;
73973;PMS5003;62336;-26.094;27.994;2022-07-23T06:07:07;42;41;
73973;PMS5003;62336;-26.094;27.994;2022-07-23T06:09:32;37;32;
73973;PMS5003;62336;-26.094;27.994;2022-07-23T06:11:58;35;33;
73973;PMS5003;62336;-26.094;27.994;2022-07-23T06:14:24;28;28;
73973;PMS5003;62336;-26.094;27.994;2022-07-23T06:16:50;29;27;
73973;PMS5003;62336;-26.094;27.994;2022-07-23T06:19:16;27;25;
73973;PMS5003;62336;-26.094;27.994;2022-07-23T06:21:41;28;28;
73973;PMS5003;62336;-26.094;27.994;2022-07-23T06:24:07;29;28;
73973;PMS5003;62336;-26.094;27.994;2022-07-23T06:26:32;29;28;
73973;PMS5003;62336;-26.094;27.994;2022-07-23T06:28:58;33;30;
73973;PMS5003;62336;-26.094;27.994;2022-07-23T06:31:23;31;30;
73973;PMS5003;62336;-26.094;27.994;2022-07-23T06:33:49;39;34;
73973;PMS5003;62336;-26.094;27.994;2022-07-23T06:36:14;31;30;
73973;PMS5003;62336;-26.094;27.994;2022-07-23T06:38:40;33;31;
73973;PMS5003;62336;-26.094;27.994;2022-07-23T06:41:05;32;29;
73973;PMS5003;62336;-26.094;27.994;2022-07-23T06:43:31;36;33;
73973;PMS5003;62336;-26.094;27.994;2022-07-23T06:45:56;33;29;
73973;PMS5003;62336;-26.094;27.994;2022-07-23T06:48:21;35;33;
73973;PMS5003;62336;-26.094;27.994;2022-07-23T06:50:47;36;34;
73973;PMS5003;62336;-26.094;27.994;2022-07-23T06:53:12;32;29;
73973;PMS5003;62336;-26.094;27.994;2022-07-23T06:55:37;29;28;
73973;PMS5003;62336;-26.094;27.994;2022-07-23T06:58:03;35;34;
73973;PMS5003;62336;-26.094;27.994;2022-07-23T07:00:28;34;33;
73973;PMS5003;62336;-26.094;27.994;2022-07-23T07:02:54;39;38;
73973;PMS5003;62336;-26.094;27.994;2022-07-23T07:05:20;41;36;
73973;PMS5003;62336;-26.094;27.994;2022-07-23T07:07:46;38;37;
73973;PMS5003;62336;-26.094;27.994;2022-07-23T07:10:10;40;38;
73973;PMS5003;62336;-26.094;27.994;2022-07-23T07:12:36;46;42;
73973;PMS5003;62336;-26.094;27.994;2022-07-23T07:15:01;47;46;
73973;PMS5003;62336;-26.094;27.994;2022-07-23T07:17:27;56;50;
73973;PMS5003;62336;-26.094;27.994;2022-07-23T07:19:52;47;45;
73973;PMS5003;62336;-26.094;27.994;2022-07-23T07:22:17;54;52;
73973;PMS5003;62336;-26.094;27.994;2022-07-23T07:24:42;43;40;
73973;PMS5003;62336;-26.094;27.994;2022-07-23T07:27:08;33;30;
73973;PMS5003;62336;-26.094;27.994;2022-07-23T07:29:33;37;32;
73973;PMS5003;62336;-26.094;27.994;2022-07-23T07:31:58;32;30;
73973;PMS5003;62336;-26.094;27.994;2022-07-23T07:34:24;31;29;
73973;PMS5003;62336;-26.094;27.994;2022-07-23T07:36:49;26;23;
73973;PMS5003;62336;-26.094;27.994;2022-07-23T07:39:14;31;28;
73973;PMS5003;62336;-26.094;27.994;2022-07-23T07:41:40;27;25;
73973;PMS5003;62336;-26.094;27.994;2022-07-23T07:44:05;30;25;
73973;PMS5003;62336;-26.094;27.994;2022-07-23T07:46:30;27;25;
73973;PMS5003;62336;-26.094;27.994;2022-07-23T07:48:56;26;25;
73973;PMS5003;62336;-26.094;27.994;2022-07-23T07:51:21;27;24;
73973;PMS5003;62336;-26.094;27.994;2022-07-23T07:53:46;34;32;
73973;PMS5003;62336;-26.094;27.994;2022-07-23T07:56:12;37;35;
73973;PMS5003;62336;-26.094;27.994;2022-07-23T07:58:37;31;28;
73973;PMS5003;62336;-26.094;27.994;2022-07-23T08:01:03;30;29;
73973;PMS5003;62336;-26.094;27.994;2022-07-23T08:03:28;29;27;
73973;PMS5003;62336;-26.094;27.994;2022-07-23T08:05:54;33;31;
73973;PMS5003;62336;-26.094;27.994;2022-07-23T08:08:19;26;24;
73973;PMS5003;62336;-26.094;27.994;2022-07-23T08:10:45;35;31;
73973;PMS5003;62336;-26.094;27.994;2022-07-23T08:13:12;33;32;
73973;PMS5003;62336;-26.094;27.994;2022-07-23T08:15:36;30;29;
73973;PMS5003;62336;-26.094;27.994;2022-07-23T08:18:01;30;28;
73973;PMS5003;62336;-26.094;27.994;2022-07-23T08:20:26;26;24;
73973;PMS5003;62336;-26.094;27.994;2022-07-23T08:22:53;27;25;
73973;PMS5003;62336;-26.094;27.994;2022-07-23T08:25:20;28;27;
73973;PMS5003;62336;-26.094;27.994;2022-07-23T08:27:42;24;22;
73973;PMS5003;62336;-26.094;27.994;2022-07-23T08:30:08;20;20;
73973;PMS5003;62336;-26.094;27.994;2022-07-23T08:32:33;24;22;
73973;PMS5003;62336;-26.094;27.994;2022-07-23T08:34:58;17;17;
73973;PMS5003;62336;-26.094;27.994;2022-07-23T08:37:27;14;14;
73973;PMS5003;62336;-26.094;27.994;2022-07-23T08:39:54;17;17;
73973;PMS5003;62336;-26.094;27.994;2022-07-23T08:42:14;14;13;
73973;PMS5003;62336;-26.094;27.994;2022-07-23T08:44:39;14;14;
73973;PMS5003;62336;-26.094;27.994;2022-07-23T08:47:04;13;12;
73973;PMS5003;62336;-26.094;27.994;2022-07-23T08:49:30;11;10;
73973;PMS5003;62336;-26.094;27.994;2022-07-23T08:51:55;11;11;
73973;PMS5003;62336;-26.094;27.994;2022-07-23T08:54:20;15;13;
73973;PMS5003;62336;-26.094;27.994;2022-07-23T08:56:45;9;8;
73973;PMS5003;62336;-26.094;27.994;2022-07-23T08:59:10;16;14;
73973;PMS5003;62336;-26.094;27.994;2022-07-23T09:01:35;13;11;
73973;PMS5003;62336;-26.094;27.994;2022-07-23T09:04:01;11;10;
73973;PMS5003;62336;-26.094;27.994;2022-07-23T09:06:26;13;13;
73973;PMS5003;62336;-26.094;27.994;2022-07-23T09:08:51;11;11;
73973;PMS5003;62336;-26.094;27.994;2022-07-23T09:11:16;10;10;
73973;PMS5003;62336;-26.094;27.994;2022-07-23T09:13:41;11;11;
73973;PMS5003;62336;-26.094;27.994;2022-07-23T09:16:07;12;11;
73973;PMS5003;62336;-26.094;27.994;2022-07-23T09:18:32;14;14;
73973;PMS5003;62336;-26.094;27.994;2022-07-23T09:23:27;15;13;
73973;PMS5003;62336;-26.094;27.994;2022-07-23T09:25:47;12;12;
73973;PMS5003;62336;-26.094;27.994;2022-07-23T09:28:13;11;11;
73973;PMS5003;62336;-26.094;27.994;2022-07-23T09:30:41;13;13;
73973;PMS5003;62336;-26.094;27.994;2022-07-23T09:33:06;17;16;
73973;PMS5003;62336;-26.094;27.994;2022-07-23T09:40:19;12;11;
73973;PMS5003;62336;-26.094;27.994;2022-07-23T09:42:45;14;14;
73973;PMS5003;62336;-26.094;27.994;2022-07-23T09:45:10;13;13;
73973;PMS5003;62336;-26.094;27.994;2022-07-23T09:47:35;13;12;
73973;PMS5003;62336;-26.094;27.994;2022-07-23T09:50:02;14;14;
73973;PMS5003;62336;-26.094;27.994;2022-07-23T09:52:26;14;13;
73973;PMS5003;62336;-26.094;27.994;2022-07-23T09:54:51;14;14;
73973;PMS5003;62336;-26.094;27.994;2022-07-23T09:57:16;16;15;
73973;PMS5003;62336;-26.094;27.994;2022-07-23T09:59:42;20;18;
73973;PMS5003;62336;-26.094;27.994;2022-07-23T10:02:07;15;15;
73973;PMS5003;62336;-26.094;27.994;2022-07-23T10:04:32;17;16;
73973;PMS5003;62336;-26.094;27.994;2022-07-23T10:06:57;19;17;
73973;PMS5003;62336;-26.094;27.994;2022-07-23T10:09:23;18;18;
73973;PMS5003;62336;-26.094;27.994;2022-07-23T10:11:47;18;18;
73973;PMS5003;62336;-26.094;27.994;2022-07-23T10:14:13;17;17;
73973;PMS5003;62336;-26.094;27.994;2022-07-23T10:16:38;15;13;
73973;PMS5003;62336;-26.094;27.994;2022-07-23T10:19:04;20;19;
73973;PMS5003;62336;-26.094;27.994;2022-07-23T10:21:33;16;15;
73973;PMS5003;62336;-26.094;27.994;2022-07-23T10:24:04;18;17;
73973;PMS5003;62336;-26.094;27.994;2022-07-23T10:26:22;22;20;
73973;PMS5003;62336;-26.094;27.994;2022-07-23T10:28:51;18;18;
73973;PMS5003;62336;-26.094;27.994;2022-07-23T10:31:14;19;18;
73973;PMS5003;62336;-26.094;27.994;2022-07-23T10:33:41;19;18;
73973;PMS5003;62336;-26.094;27.994;2022-07-23T10:36:03;19;17;
73973;PMS5003;62336;-26.094;27.994;2022-07-23T10:38:27;22;18;
73973;PMS5003;62336;-26.094;27.994;2022-07-23T10:40:54;17;16;
73973;PMS5003;62336;-26.094;27.994;2022-07-23T10:43:17;18;16;
73973;PMS5003;62336;-26.094;27.994;2022-07-23T10:45:42;17;16;
73973;PMS5003;62336;-26.094;27.994;2022-07-23T10:48:13;21;20;
73973;PMS5003;62336;-26.094;27.994;2022-07-23T10:50:33;16;14;
73973;PMS5003;62336;-26.094;27.994;2022-07-23T10:57:50;18;16;
73973;PMS5003;62336;-26.094;27.994;2022-07-23T11:00:15;22;19;
73973;PMS5003;62336;-26.094;27.994;2022-07-23T11:02:40;19;18;
73973;PMS5003;62336;-26.094;27.994;2022-07-23T11:05:05;18;17;
73973;PMS5003;62336;-26.094;27.994;2022-07-23T11:07:30;18;17;
73973;PMS5003;62336;-26.094;27.994;2022-07-23T11:09:55;20;18;
73973;PMS5003;62336;-26.094;27.994;2022-07-23T11:22:03;16;16;
73973;PMS5003;62336;-26.094;27.994;2022-07-23T11:24:28;19;18;
73973;PMS5003;62336;-26.094;27.994;2022-07-23T11:26:55;19;16;
73973;PMS5003;62336;-26.094;27.994;2022-07-23T11:31:38;15;15;
73973;PMS5003;62336;-26.094;27.994;2022-07-23T11:36:28;16;15;
73973;PMS5003;62336;-26.094;27.994;2022-07-23T11:38:53;18;14;
73973;PMS5003;62336;-26.094;27.994;2022-07-23T11:41:18;17;16;
73973;PMS5003;62336;-26.094;27.994;2022-07-23T11:43:43;16;15;
73973;PMS5003;62336;-26.094;27.994;2022-07-23T11:46:09;14;13;
73973;PMS5003;62336;-26.094;27.994;2022-07-23T11:48:34;13;12;
73973;PMS5003;62336;-26.094;27.994;2022-07-23T11:50:59;18;17;
73973;PMS5003;62336;-26.094;27.994;2022-07-23T11:53:25;17;16;
73973;PMS5003;62336;-26.094;27.994;2022-07-23T11:55:51;19;19;
73973;PMS5003;62336;-26.094;27.994;2022-07-23T11:58:16;23;22;
73973;PMS5003;62336;-26.094;27.994;2022-07-23T12:00:42;19;17;
73973;PMS5003;62336;-26.094;27.994;2022-07-23T12:03:07;15;14;
73973;PMS5003;62336;-26.094;27.994;2022-07-23T12:05:33;15;15;
73973;PMS5003;62336;-26.094;27.994;2022-07-23T12:07:58;13;13;
73973;PMS5003;62336;-26.094;27.994;2022-07-23T12:10:23;20;17;
73973;PMS5003;62336;-26.094;27.994;2022-07-23T12:12:48;15;13;
73973;PMS5003;62336;-26.094;27.994;2022-07-23T12:15:13;17;16;
73973;PMS5003;62336;-26.094;27.994;2022-07-23T12:17:38;14;13;
73973;PMS5003;62336;-26.094;27.994;2022-07-23T12:20:04;16;15;
73973;PMS5003;62336;-26.094;27.994;2022-07-23T12:22:33;14;13;
73973;PMS5003;62336;-26.094;27.994;2022-07-23T12:24:55;16;14;
73973;PMS5003;62336;-26.094;27.994;2022-07-23T12:27:20;15;13;
73973;PMS5003;62336;-26.094;27.994;2022-07-23T12:29:45;16;16;
73973;PMS5003;62336;-26.094;27.994;2022-07-23T12:32:17;16;15;
73973;PMS5003;62336;-26.094;27.994;2022-07-23T12:34:35;18;15;
73973;PMS5003;62336;-26.094;27.994;2022-07-23T12:37:00;17;16;
73973;PMS5003;62336;-26.094;27.994;2022-07-23T12:39:30;13;13;
73973;PMS5003;62336;-26.094;27.994;2022-07-23T12:41:52;16;16;
73973;PMS5003;62336;-26.094;27.994;2022-07-23T12:44:16;16;16;
73973;PMS5003;62336;-26.094;27.994;2022-07-23T12:46:41;21;18;
73973;PMS5003;62336;-26.094;27.994;2022-07-23T12:49:07;17;16;
73973;PMS5003;62336;-26.094;27.994;2022-07-23T12:51:32;17;16;
73973;PMS5003;62336;-26.094;27.994;2022-07-23T12:53:58;14;14;
73973;PMS5003;62336;-26.094;27.994;2022-07-23T12:56:27;15;15;
73973;PMS5003;62336;-26.094;27.994;2022-07-23T12:58:48;16;16;
73973;PMS5003;62336;-26.094;27.994;2022-07-23T13:03:39;16;15;
73973;PMS5003;62336;-26.094;27.994;2022-07-23T13:06:04;14;14;
73973;PMS5003;62336;-26.094;27.994;2022-07-23T13:08:30;18;18;
73973;PMS5003;62336;-26.094;27.994;2022-07-23T13:10:55;18;17;
73973;PMS5003;62336;-26.094;27.994;2022-07-23T13:13:20;12;12;
73973;PMS5003;62336;-26.094;27.994;2022-07-23T13:15:45;12;12;
73973;PMS5003;62336;-26.094;27.994;2022-07-23T13:18:11;15;15;
73973;PMS5003;62336;-26.094;27.994;2022-07-23T13:20:36;17;17;
73973;PMS5003;62336;-26.094;27.994;2022-07-23T13:23:02;16;16;
73973;PMS5003;62336;-26.094;27.994;2022-07-23T13:25:27;16;16;
73973;PMS5003;62336;-26.094;27.994;2022-07-23T13:27:52;19;18;
73973;PMS5003;62336;-26.094;27.994;2022-07-23T13:30:17;17;15;
73973;PMS5003;62336;-26.094;27.994;2022-07-23T13:32:43;17;16;
73973;PMS5003;62336;-26.094;27.994;2022-07-23T13:35:09;14;14;
73973;PMS5003;62336;-26.094;27.994;2022-07-23T13:37:34;26;25;
73973;PMS5003;62336;-26.094;27.994;2022-07-23T13:39:59;18;17;
73973;PMS5003;62336;-26.094;27.994;2022-07-23T13:42:24;18;18;
73973;PMS5003;62336;-26.094;27.994;2022-07-23T13:44:49;18;17;
73973;PMS5003;62336;-26.094;27.994;2022-07-23T13:47:15;19;19;
73973;PMS5003;62336;-26.094;27.994;2022-07-23T13:49:41;22;21;
73973;PMS5003;62336;-26.094;27.994;2022-07-23T13:52:06;21;20;
73973;PMS5003;62336;-26.094;27.994;2022-07-23T13:54:31;18;17;
73973;PMS5003;62336;-26.094;27.994;2022-07-23T13:56:56;22;22;
73973;PMS5003;62336;-26.094;27.994;2022-07-23T13:59:21;20;19;
73973;PMS5003;62336;-26.094;27.994;2022-07-23T14:01:46;17;17;
73973;PMS5003;62336;-26.094;27.994;2022-07-23T14:04:12;16;16;
73973;PMS5003;62336;-26.094;27.994;2022-07-23T14:06:37;18;17;
73973;PMS5003;62336;-26.094;27.994;2022-07-23T14:09:02;17;16;
73973;PMS5003;62336;-26.094;27.994;2022-07-23T14:11:27;18;18;
73973;PMS5003;62336;-26.094;27.994;2022-07-23T14:13:53;17;16;
73973;PMS5003;62336;-26.094;27.994;2022-07-23T14:16:18;15;15;
73973;PMS5003;62336;-26.094;27.994;2022-07-23T14:18:43;13;13;
73973;PMS5003;62336;-26.094;27.994;2022-07-23T14:21:08;16;14;
73973;PMS5003;62336;-26.094;27.994;2022-07-23T14:23:33;19;19;
73973;PMS5003;62336;-26.094;27.994;2022-07-23T14:25:58;16;16;
73973;PMS5003;62336;-26.094;27.994;2022-07-23T14:28:23;16;16;
73973;PMS5003;62336;-26.094;27.994;2022-07-23T14:30:48;17;16;
73973;PMS5003;62336;-26.094;27.994;2022-07-23T14:33:14;24;24;
73973;PMS5003;62336;-26.094;27.994;2022-07-23T14:35:39;21;19;
73973;PMS5003;62336;-26.094;27.994;2022-07-23T14:38:05;16;15;
73973;PMS5003;62336;-26.094;27.994;2022-07-23T14:40:30;16;16;
73973;PMS5003;62336;-26.094;27.994;2022-07-23T14:42:55;13;13;
73973;PMS5003;62336;-26.094;27.994;2022-07-23T14:45:20;17;16;
73973;PMS5003;62336;-26.094;27.994;2022-07-23T14:47:45;20;18;
73973;PMS5003;62336;-26.094;27.994;2022-07-23T14:50:10;26;26;
73973;PMS5003;62336;-26.094;27.994;2022-07-23T14:52:35;34;33;
73973;PMS5003;62336;-26.094;27.994;2022-07-23T14:55:01;17;15;
73973;PMS5003;62336;-26.094;27.994;2022-07-23T14:57:26;25;24;
73973;PMS5003;62336;-26.094;27.994;2022-07-23T14:59:51;18;18;
73973;PMS5003;62336;-26.094;27.994;2022-07-23T15:02:16;13;13;
73973;PMS5003;62336;-26.094;27.994;2022-07-23T15:04:41;13;13;
73973;PMS5003;62336;-26.094;27.994;2022-07-23T15:07:06;14;14;
73973;PMS5003;62336;-26.094;27.994;2022-07-23T15:09:32;15;15;
73973;PMS5003;62336;-26.094;27.994;2022-07-23T15:11:57;13;13;
73973;PMS5003;62336;-26.094;27.994;2022-07-23T15:14:22;12;12;
73973;PMS5003;62336;-26.094;27.994;2022-07-23T15:16:48;15;15;
73973;PMS5003;62336;-26.094;27.994;2022-07-23T15:19:13;15;15;
73973;PMS5003;62336;-26.094;27.994;2022-07-23T15:21:39;14;14;
73973;PMS5003;62336;-26.094;27.994;2022-07-23T15:24:04;16;16;
73973;PMS5003;62336;-26.094;27.994;2022-07-23T15:26:30;15;14;
73973;PMS5003;62336;-26.094;27.994;2022-07-23T15:28:55;17;16;
73973;PMS5003;62336;-26.094;27.994;2022-07-23T15:31:21;19;19;
73973;PMS5003;62336;-26.094;27.994;2022-07-23T15:33:45;18;18;
73973;PMS5003;62336;-26.094;27.994;2022-07-23T15:36:10;19;17;
73973;PMS5003;62336;-26.094;27.994;2022-07-23T15:38:35;19;18;
73973;PMS5003;62336;-26.094;27.994;2022-07-23T15:41:00;25;21;
73973;PMS5003;62336;-26.094;27.994;2022-07-23T15:43:26;16;16;
73973;PMS5003;62336;-26.094;27.994;2022-07-23T15:45:51;21;20;
73973;PMS5003;62336;-26.094;27.994;2022-07-23T15:48:16;22;20;
73973;PMS5003;62336;-26.094;27.994;2022-07-23T15:50:42;19;19;
73973;PMS5003;62336;-26.094;27.994;2022-07-23T15:53:08;26;25;
73973;PMS5003;62336;-26.094;27.994;2022-07-23T15:55:33;27;26;
73973;PMS5003;62336;-26.094;27.994;2022-07-23T15:57:58;39;36;
73973;PMS5003;62336;-26.094;27.994;2022-07-23T16:00:24;36;34;
73973;PMS5003;62336;-26.094;27.994;2022-07-23T16:02:49;43;40;